sensor_id;sensor_type;location;lat;lon;timestamp;P1;durP1;ratioP1;P2;durP2;ratioP2
24034;SDS011;12242;50.952;4.678;2023-02-18T00:01:36;18.50;;;8.05;;
24034;SDS011;12242;50.952;4.678;2023-02-18T00:04:04;15.48;;;7.53;;
24034;SDS011;12242;50.952;4.678;2023-02-18T00:06:35;20.88;;;7.80;;
24034;SDS011;12242;50.952;4.678;2023-02-18T00:09:03;15.23;;;7.82;;
24034;SDS011;12242;50.952;4.678;2023-02-18T00:11:33;16.25;;;6.82;;
24034;SDS011;12242;50.952;4.678;2023-02-18T00:14:02;18.42;;;7.30;;
24034;SDS011;12242;50.952;4.678;2023-02-18T00:16:31;14.88;;;7.38;;
24034;SDS011;12242;50.952;4.678;2023-02-18T00:19:02;18.15;;;6.78;;
24034;SDS011;12242;50.952;4.678;2023-02-18T00:21:34;15.87;;;7.03;;
24034;SDS011;12242;50.952;4.678;2023-02-18T00:24:03;17.52;;;7.00;;
24034;SDS011;12242;50.952;4.678;2023-02-18T00:26:31;14.27;;;6.03;;
24034;SDS011;12242;50.952;4.678;2023-02-18T00:28:58;14.55;;;5.78;;
24034;SDS011;12242;50.952;4.678;2023-02-18T00:31:27;13.95;;;6.00;;
24034;SDS011;12242;50.952;4.678;2023-02-18T00:33:58;12.15;;;5.68;;
24034;SDS011;12242;50.952;4.678;2023-02-18T00:36:29;17.77;;;6.05;;
24034;SDS011;12242;50.952;4.678;2023-02-18T00:38:57;15.05;;;6.18;;
24034;SDS011;12242;50.952;4.678;2023-02-18T00:41:30;14.97;;;5.80;;
24034;SDS011;12242;50.952;4.678;2023-02-18T00:43:57;16.48;;;5.70;;
24034;SDS011;12242;50.952;4.678;2023-02-18T00:46:27;15.32;;;5.65;;
24034;SDS011;12242;50.952;4.678;2023-02-18T00:48:57;14.15;;;5.70;;
24034;SDS011;12242;50.952;4.678;2023-02-18T00:51:27;13.98;;;5.75;;
24034;SDS011;12242;50.952;4.678;2023-02-18T00:53:55;13.82;;;5.55;;
24034;SDS011;12242;50.952;4.678;2023-02-18T00:56:22;12.38;;;5.53;;
24034;SDS011;12242;50.952;4.678;2023-02-18T00:58:52;12.38;;;5.00;;
24034;SDS011;12242;50.952;4.678;2023-02-18T01:01:21;14.20;;;5.30;;
24034;SDS011;12242;50.952;4.678;2023-02-18T01:03:52;11.82;;;4.40;;
24034;SDS011;12242;50.952;4.678;2023-02-18T01:06:19;11.85;;;4.65;;
24034;SDS011;12242;50.952;4.678;2023-02-18T01:08:48;10.18;;;4.72;;
24034;SDS011;12242;50.952;4.678;2023-02-18T01:11:20;9.88;;;4.53;;
24034;SDS011;12242;50.952;4.678;2023-02-18T01:13:52;11.40;;;4.32;;
24034;SDS011;12242;50.952;4.678;2023-02-18T01:16:21;12.30;;;4.15;;
24034;SDS011;12242;50.952;4.678;2023-02-18T01:18:49;9.65;;;3.47;;
24034;SDS011;12242;50.952;4.678;2023-02-18T01:21:17;10.48;;;4.07;;
24034;SDS011;12242;50.952;4.678;2023-02-18T01:23:44;12.82;;;3.75;;
24034;SDS011;12242;50.952;4.678;2023-02-18T01:26:16;12.18;;;4.25;;
24034;SDS011;12242;50.952;4.678;2023-02-18T01:28:43;11.32;;;3.58;;
24034;SDS011;12242;50.952;4.678;2023-02-18T01:31:13;8.60;;;3.33;;
24034;SDS011;12242;50.952;4.678;2023-02-18T01:33:43;10.35;;;3.33;;
24034;SDS011;12242;50.952;4.678;2023-02-18T01:36:11;6.55;;;2.40;;
24034;SDS011;12242;50.952;4.678;2023-02-18T01:38:40;8.45;;;2.72;;
24034;SDS011;12242;50.952;4.678;2023-02-18T01:41:10;5.97;;;2.75;;
24034;SDS011;12242;50.952;4.678;2023-02-18T01:43:40;6.80;;;2.55;;
24034;SDS011;12242;50.952;4.678;2023-02-18T01:56:32;4.70;;;1.77;;
24034;SDS011;12242;50.952;4.678;2023-02-18T01:59:07;6.75;;;1.40;;
24034;SDS011;12242;50.952;4.678;2023-02-18T02:01:41;4.22;;;1.42;;
24034;SDS011;12242;50.952;4.678;2023-02-18T02:04:10;3.88;;;1.42;;
24034;SDS011;12242;50.952;4.678;2023-02-18T02:06:43;4.13;;;1.23;;
24034;SDS011;12242;50.952;4.678;2023-02-18T02:09:11;3.78;;;1.10;;
24034;SDS011;12242;50.952;4.678;2023-02-18T02:29:06;1.73;;;0.70;;
24034;SDS011;12242;50.952;4.678;2023-02-18T02:43:11;2.58;;;0.85;;
24034;SDS011;12242;50.952;4.678;2023-02-18T02:51:30;2.53;;;0.80;;
24034;SDS011;12242;50.952;4.678;2023-02-18T02:54:13;2.05;;;0.80;;
24034;SDS011;12242;50.952;4.678;2023-02-18T02:56:44;2.20;;;0.90;;
24034;SDS011;12242;50.952;4.678;2023-02-18T02:59:18;2.33;;;0.70;;
24034;SDS011;12242;50.952;4.678;2023-02-18T03:04:57;1.33;;;0.50;;
24034;SDS011;12242;50.952;4.678;2023-02-18T03:16:44;1.08;;;0.50;;
24034;SDS011;12242;50.952;4.678;2023-02-18T03:21:51;1.15;;;0.55;;
24034;SDS011;12242;50.952;4.678;2023-02-18T03:24:40;2.17;;;0.70;;
24034;SDS011;12242;50.952;4.678;2023-02-18T03:29:58;1.70;;;0.70;;
24034;SDS011;12242;50.952;4.678;2023-02-18T03:32:32;2.28;;;0.90;;
24034;SDS011;12242;50.952;4.678;2023-02-18T03:35:02;2.60;;;0.90;;
24034;SDS011;12242;50.952;4.678;2023-02-18T03:37:38;2.70;;;0.68;;
24034;SDS011;12242;50.952;4.678;2023-02-18T03:40:09;2.40;;;1.02;;
24034;SDS011;12242;50.952;4.678;2023-02-18T03:42:38;2.13;;;0.75;;
24034;SDS011;12242;50.952;4.678;2023-02-18T03:45:07;2.30;;;1.00;;
24034;SDS011;12242;50.952;4.678;2023-02-18T03:47:35;1.88;;;0.75;;
24034;SDS011;12242;50.952;4.678;2023-02-18T03:50:02;1.85;;;0.65;;
24034;SDS011;12242;50.952;4.678;2023-02-18T03:52:30;1.63;;;0.63;;
24034;SDS011;12242;50.952;4.678;2023-02-18T03:54:57;3.45;;;1.00;;
24034;SDS011;12242;50.952;4.678;2023-02-18T03:57:24;2.22;;;0.80;;
24034;SDS011;12242;50.952;4.678;2023-02-18T03:59:57;1.85;;;0.55;;
24034;SDS011;12242;50.952;4.678;2023-02-18T04:02:24;2.90;;;0.63;;
24034;SDS011;12242;50.952;4.678;2023-02-18T04:04:51;1.55;;;0.73;;
24034;SDS011;12242;50.952;4.678;2023-02-18T04:07:21;2.70;;;0.85;;
24034;SDS011;12242;50.952;4.678;2023-02-18T04:09:48;3.97;;;0.88;;
24034;SDS011;12242;50.952;4.678;2023-02-18T04:12:16;2.20;;;0.80;;
24034;SDS011;12242;50.952;4.678;2023-02-18T04:14:45;3.00;;;0.98;;
24034;SDS011;12242;50.952;4.678;2023-02-18T04:17:12;2.10;;;0.90;;
24034;SDS011;12242;50.952;4.678;2023-02-18T04:19:42;2.25;;;0.98;;
24034;SDS011;12242;50.952;4.678;2023-02-18T04:22:12;2.40;;;1.10;;
24034;SDS011;12242;50.952;4.678;2023-02-18T04:24:41;2.30;;;0.88;;
24034;SDS011;12242;50.952;4.678;2023-02-18T04:27:08;2.58;;;0.90;;
24034;SDS011;12242;50.952;4.678;2023-02-18T04:29:38;2.88;;;0.82;;
24034;SDS011;12242;50.952;4.678;2023-02-18T04:32:05;2.40;;;1.00;;
24034;SDS011;12242;50.952;4.678;2023-02-18T04:34:32;2.20;;;0.80;;
24034;SDS011;12242;50.952;4.678;2023-02-18T04:37:00;3.28;;;0.80;;
24034;SDS011;12242;50.952;4.678;2023-02-18T04:39:27;2.05;;;0.70;;
24034;SDS011;12242;50.952;4.678;2023-02-18T04:41:54;2.40;;;0.70;;
24034;SDS011;12242;50.952;4.678;2023-02-18T04:44:22;2.20;;;0.80;;
24034;SDS011;12242;50.952;4.678;2023-02-18T04:46:49;1.67;;;0.65;;
24034;SDS011;12242;50.952;4.678;2023-02-18T04:49:18;2.35;;;0.90;;
24034;SDS011;12242;50.952;4.678;2023-02-18T04:51:46;2.05;;;0.73;;
24034;SDS011;12242;50.952;4.678;2023-02-18T04:54:17;2.40;;;0.93;;
24034;SDS011;12242;50.952;4.678;2023-02-18T04:56:45;2.30;;;0.82;;
24034;SDS011;12242;50.952;4.678;2023-02-18T04:59:12;4.53;;;0.90;;
24034;SDS011;12242;50.952;4.678;2023-02-18T05:01:40;2.50;;;1.05;;
24034;SDS011;12242;50.952;4.678;2023-02-18T05:04:12;2.67;;;0.88;;
24034;SDS011;12242;50.952;4.678;2023-02-18T05:06:39;2.33;;;0.77;;
24034;SDS011;12242;50.952;4.678;2023-02-18T05:09:09;2.90;;;1.13;;
24034;SDS011;12242;50.952;4.678;2023-02-18T05:11:39;1.92;;;0.80;;
24034;SDS011;12242;50.952;4.678;2023-02-18T05:14:07;3.20;;;1.10;;
24034;SDS011;12242;50.952;4.678;2023-02-18T05:16:34;3.15;;;0.90;;
24034;SDS011;12242;50.952;4.678;2023-02-18T05:19:04;5.53;;;1.30;;
24034;SDS011;12242;50.952;4.678;2023-02-18T05:21:31;3.15;;;0.93;;
24034;SDS011;12242;50.952;4.678;2023-02-18T05:24:01;2.85;;;0.75;;
24034;SDS011;12242;50.952;4.678;2023-02-18T05:26:31;2.97;;;1.00;;
24034;SDS011;12242;50.952;4.678;2023-02-18T05:29:01;2.17;;;0.93;;
24034;SDS011;12242;50.952;4.678;2023-02-18T05:31:32;2.95;;;0.93;;
24034;SDS011;12242;50.952;4.678;2023-02-18T05:33:59;2.28;;;0.80;;
24034;SDS011;12242;50.952;4.678;2023-02-18T05:36:26;2.90;;;0.90;;
24034;SDS011;12242;50.952;4.678;2023-02-18T05:38:56;2.00;;;0.77;;
24034;SDS011;12242;50.952;4.678;2023-02-18T05:41:23;2.28;;;0.70;;
24034;SDS011;12242;50.952;4.678;2023-02-18T05:43:50;1.45;;;0.60;;
24034;SDS011;12242;50.952;4.678;2023-02-18T05:46:36;2.13;;;0.70;;
24034;SDS011;12242;50.952;4.678;2023-02-18T05:49:03;2.28;;;0.65;;
24034;SDS011;12242;50.952;4.678;2023-02-18T05:51:31;1.00;;;0.50;;
24034;SDS011;12242;50.952;4.678;2023-02-18T05:53:58;4.38;;;0.75;;
24034;SDS011;12242;50.952;4.678;2023-02-18T05:56:28;2.88;;;0.73;;
24034;SDS011;12242;50.952;4.678;2023-02-18T05:58:58;1.13;;;0.60;;
24034;SDS011;12242;50.952;4.678;2023-02-18T06:01:25;1.95;;;0.57;;
24034;SDS011;12242;50.952;4.678;2023-02-18T06:03:53;3.15;;;0.52;;
24034;SDS011;12242;50.952;4.678;2023-02-18T06:06:20;2.42;;;0.77;;
24034;SDS011;12242;50.952;4.678;2023-02-18T06:08:47;2.60;;;0.85;;
24034;SDS011;12242;50.952;4.678;2023-02-18T06:11:17;4.18;;;0.77;;
24034;SDS011;12242;50.952;4.678;2023-02-18T06:13:52;5.28;;;0.93;;
24034;SDS011;12242;50.952;4.678;2023-02-18T06:16:19;3.50;;;1.10;;
24034;SDS011;12242;50.952;4.678;2023-02-18T06:18:46;3.90;;;1.02;;
24034;SDS011;12242;50.952;4.678;2023-02-18T06:21:13;4.82;;;1.15;;
24034;SDS011;12242;50.952;4.678;2023-02-18T06:23:41;3.33;;;0.90;;
24034;SDS011;12242;50.952;4.678;2023-02-18T06:26:08;8.25;;;1.42;;
24034;SDS011;12242;50.952;4.678;2023-02-18T06:28:36;4.80;;;1.17;;
24034;SDS011;12242;50.952;4.678;2023-02-18T06:31:08;5.80;;;1.17;;
24034;SDS011;12242;50.952;4.678;2023-02-18T06:33:35;8.38;;;1.08;;
24034;SDS011;12242;50.952;4.678;2023-02-18T06:36:06;7.47;;;1.17;;
24034;SDS011;12242;50.952;4.678;2023-02-18T06:38:38;5.47;;;1.25;;
24034;SDS011;12242;50.952;4.678;2023-02-18T06:41:06;6.05;;;1.20;;
24034;SDS011;12242;50.952;4.678;2023-02-18T06:43:34;5.13;;;1.10;;
24034;SDS011;12242;50.952;4.678;2023-02-18T06:46:04;9.95;;;1.15;;
24034;SDS011;12242;50.952;4.678;2023-02-18T06:48:34;10.35;;;1.55;;
24034;SDS011;12242;50.952;4.678;2023-02-18T06:51:04;11.30;;;1.27;;
24034;SDS011;12242;50.952;4.678;2023-02-18T06:53:34;7.45;;;1.30;;
24034;SDS011;12242;50.952;4.678;2023-02-18T06:56:01;5.68;;;1.17;;
24034;SDS011;12242;50.952;4.678;2023-02-18T06:58:29;4.57;;;1.08;;
24034;SDS011;12242;50.952;4.678;2023-02-18T07:00:56;7.35;;;1.33;;
24034;SDS011;12242;50.952;4.678;2023-02-18T07:03:26;5.88;;;1.40;;
24034;SDS011;12242;50.952;4.678;2023-02-18T07:05:54;8.85;;;1.20;;
24034;SDS011;12242;50.952;4.678;2023-02-18T07:08:22;9.57;;;1.45;;
24034;SDS011;12242;50.952;4.678;2023-02-18T07:10:51;8.25;;;1.58;;
24034;SDS011;12242;50.952;4.678;2023-02-18T07:13:19;5.22;;;1.38;;
24034;SDS011;12242;50.952;4.678;2023-02-18T07:15:46;5.47;;;1.40;;
24034;SDS011;12242;50.952;4.678;2023-02-18T07:18:13;7.43;;;1.42;;
24034;SDS011;12242;50.952;4.678;2023-02-18T07:20:43;8.75;;;1.17;;
24034;SDS011;12242;50.952;4.678;2023-02-18T07:23:10;8.60;;;1.17;;
24034;SDS011;12242;50.952;4.678;2023-02-18T07:25:43;6.10;;;0.83;;
24034;SDS011;12242;50.952;4.678;2023-02-18T07:28:10;10.77;;;1.25;;
24034;SDS011;12242;50.952;4.678;2023-02-18T07:30:37;6.63;;;1.02;;
24034;SDS011;12242;50.952;4.678;2023-02-18T07:33:05;13.00;;;1.67;;
24034;SDS011;12242;50.952;4.678;2023-02-18T07:35:37;12.80;;;1.30;;
24034;SDS011;12242;50.952;4.678;2023-02-18T07:38:04;8.57;;;1.10;;
24034;SDS011;12242;50.952;4.678;2023-02-18T07:40:33;7.55;;;1.08;;
24034;SDS011;12242;50.952;4.678;2023-02-18T07:43:01;9.18;;;1.50;;
24034;SDS011;12242;50.952;4.678;2023-02-18T07:45:30;7.22;;;1.55;;
24034;SDS011;12242;50.952;4.678;2023-02-18T07:47:57;8.95;;;1.45;;
24034;SDS011;12242;50.952;4.678;2023-02-18T07:50:25;10.18;;;1.55;;
24034;SDS011;12242;50.952;4.678;2023-02-18T07:52:52;8.48;;;1.42;;
24034;SDS011;12242;50.952;4.678;2023-02-18T07:55:19;6.15;;;1.45;;
24034;SDS011;12242;50.952;4.678;2023-02-18T07:57:49;9.13;;;1.50;;
24034;SDS011;12242;50.952;4.678;2023-02-18T08:00:30;5.70;;;1.35;;
24034;SDS011;12242;50.952;4.678;2023-02-18T08:02:59;5.68;;;1.45;;
24034;SDS011;12242;50.952;4.678;2023-02-18T08:05:26;8.82;;;1.05;;
24034;SDS011;12242;50.952;4.678;2023-02-18T08:07:56;12.25;;;1.27;;
24034;SDS011;12242;50.952;4.678;2023-02-18T08:10:24;9.80;;;1.40;;
24034;SDS011;12242;50.952;4.678;2023-02-18T08:12:51;8.20;;;1.48;;
24034;SDS011;12242;50.952;4.678;2023-02-18T08:15:18;7.63;;;1.50;;
24034;SDS011;12242;50.952;4.678;2023-02-18T08:17:45;8.38;;;1.50;;
24034;SDS011;12242;50.952;4.678;2023-02-18T08:20:13;7.47;;;1.20;;
24034;SDS011;12242;50.952;4.678;2023-02-18T08:22:40;7.22;;;1.30;;
24034;SDS011;12242;50.952;4.678;2023-02-18T08:25:10;10.82;;;1.35;;
24034;SDS011;12242;50.952;4.678;2023-02-18T08:27:49;11.20;;;1.50;;
24034;SDS011;12242;50.952;4.678;2023-02-18T08:30:16;4.68;;;1.20;;
24034;SDS011;12242;50.952;4.678;2023-02-18T08:32:46;12.57;;;1.38;;
24034;SDS011;12242;50.952;4.678;2023-02-18T08:35:13;9.77;;;1.10;;
24034;SDS011;12242;50.952;4.678;2023-02-18T08:37:41;5.93;;;1.15;;
24034;SDS011;12242;50.952;4.678;2023-02-18T08:40:22;11.90;;;1.67;;
24034;SDS011;12242;50.952;4.678;2023-02-18T08:42:49;6.00;;;0.98;;
24034;SDS011;12242;50.952;4.678;2023-02-18T08:45:16;6.60;;;1.27;;
24034;SDS011;12242;50.952;4.678;2023-02-18T08:47:44;7.22;;;1.50;;
24034;SDS011;12242;50.952;4.678;2023-02-18T08:50:32;8.80;;;1.20;;
24034;SDS011;12242;50.952;4.678;2023-02-18T08:53:00;7.40;;;1.13;;
24034;SDS011;12242;50.952;4.678;2023-02-18T08:55:29;7.50;;;1.13;;
24034;SDS011;12242;50.952;4.678;2023-02-18T08:58:00;10.77;;;1.02;;
24034;SDS011;12242;50.952;4.678;2023-02-18T09:00:29;9.63;;;0.95;;
24034;SDS011;12242;50.952;4.678;2023-02-18T09:02:59;8.75;;;1.30;;
24034;SDS011;12242;50.952;4.678;2023-02-18T09:05:29;3.00;;;0.73;;
24034;SDS011;12242;50.952;4.678;2023-02-18T09:07:59;8.55;;;0.82;;
24034;SDS011;12242;50.952;4.678;2023-02-18T09:10:26;4.75;;;0.80;;
24034;SDS011;12242;50.952;4.678;2023-02-18T09:12:53;5.38;;;0.75;;
24034;SDS011;12242;50.952;4.678;2023-02-18T09:15:20;8.95;;;0.93;;
24034;SDS011;12242;50.952;4.678;2023-02-18T09:17:50;5.20;;;0.90;;
24034;SDS011;12242;50.952;4.678;2023-02-18T09:20:17;9.63;;;1.13;;
24034;SDS011;12242;50.952;4.678;2023-02-18T09:22:47;4.95;;;0.60;;
24034;SDS011;12242;50.952;4.678;2023-02-18T09:25:14;3.45;;;0.73;;
24034;SDS011;12242;50.952;4.678;2023-02-18T09:27:42;4.78;;;0.70;;
24034;SDS011;12242;50.952;4.678;2023-02-18T09:30:11;3.42;;;0.82;;
24034;SDS011;12242;50.952;4.678;2023-02-18T09:32:39;5.25;;;0.68;;
24034;SDS011;12242;50.952;4.678;2023-02-18T09:35:06;3.28;;;0.70;;
24034;SDS011;12242;50.952;4.678;2023-02-18T09:37:38;2.85;;;1.00;;
24034;SDS011;12242;50.952;4.678;2023-02-18T09:40:06;5.55;;;0.90;;
24034;SDS011;12242;50.952;4.678;2023-02-18T09:42:41;7.72;;;1.05;;
24034;SDS011;12242;50.952;4.678;2023-02-18T09:45:09;1.85;;;0.60;;
24034;SDS011;12242;50.952;4.678;2023-02-18T09:47:40;6.10;;;0.85;;
24034;SDS011;12242;50.952;4.678;2023-02-18T09:52:44;5.75;;;0.95;;
24034;SDS011;12242;50.952;4.678;2023-02-18T09:57:52;4.13;;;0.70;;
24034;SDS011;12242;50.952;4.678;2023-02-18T10:03:00;4.28;;;1.08;;
24034;SDS011;12242;50.952;4.678;2023-02-18T10:05:33;5.13;;;0.75;;
24034;SDS011;12242;50.952;4.678;2023-02-18T10:08:05;3.20;;;0.90;;
24034;SDS011;12242;50.952;4.678;2023-02-18T10:10:44;6.50;;;0.77;;
24034;SDS011;12242;50.952;4.678;2023-02-18T10:13:23;9.00;;;1.00;;
24034;SDS011;12242;50.952;4.678;2023-02-18T10:15:53;4.72;;;0.70;;
24034;SDS011;12242;50.952;4.678;2023-02-18T10:18:28;6.22;;;0.70;;
24034;SDS011;12242;50.952;4.678;2023-02-18T10:21:29;3.92;;;0.90;;
24034;SDS011;12242;50.952;4.678;2023-02-18T10:24:03;4.47;;;0.80;;
24034;SDS011;12242;50.952;4.678;2023-02-18T10:26:36;6.80;;;0.98;;
24034;SDS011;12242;50.952;4.678;2023-02-18T10:29:08;5.10;;;1.10;;
24034;SDS011;12242;50.952;4.678;2023-02-18T10:32:03;6.50;;;1.05;;
24034;SDS011;12242;50.952;4.678;2023-02-18T10:37:34;3.22;;;0.73;;
24034;SDS011;12242;50.952;4.678;2023-02-18T10:43:19;3.80;;;0.90;;
24034;SDS011;12242;50.952;4.678;2023-02-18T10:46:19;4.20;;;0.77;;
24034;SDS011;12242;50.952;4.678;2023-02-18T10:52:01;8.07;;;0.65;;
24034;SDS011;12242;50.952;4.678;2023-02-18T10:54:47;4.53;;;1.00;;
24034;SDS011;12242;50.952;4.678;2023-02-18T10:57:50;5.97;;;1.10;;
24034;SDS011;12242;50.952;4.678;2023-02-18T11:00:20;3.00;;;0.73;;
24034;SDS011;12242;50.952;4.678;2023-02-18T11:05:43;9.43;;;1.10;;
24034;SDS011;12242;50.952;4.678;2023-02-18T11:08:14;8.48;;;1.20;;
24034;SDS011;12242;50.952;4.678;2023-02-18T11:10:45;2.33;;;0.77;;
24034;SDS011;12242;50.952;4.678;2023-02-18T11:13:15;8.40;;;0.95;;
24034;SDS011;12242;50.952;4.678;2023-02-18T11:16:08;5.85;;;1.20;;
24034;SDS011;12242;50.952;4.678;2023-02-18T11:18:39;3.28;;;0.82;;
24034;SDS011;12242;50.952;4.678;2023-02-18T11:24:08;6.00;;;0.90;;
24034;SDS011;12242;50.952;4.678;2023-02-18T11:26:40;5.97;;;0.80;;
24034;SDS011;12242;50.952;4.678;2023-02-18T11:31:41;2.25;;;0.57;;
24034;SDS011;12242;50.952;4.678;2023-02-18T11:34:13;6.65;;;1.08;;
24034;SDS011;12242;50.952;4.678;2023-02-18T11:37:07;5.80;;;1.33;;
24034;SDS011;12242;50.952;4.678;2023-02-18T11:39:37;8.57;;;0.90;;
24034;SDS011;12242;50.952;4.678;2023-02-18T11:42:12;5.15;;;1.02;;
24034;SDS011;12242;50.952;4.678;2023-02-18T11:44:41;13.20;;;1.55;;
24034;SDS011;12242;50.952;4.678;2023-02-18T11:52:37;14.02;;;1.65;;
24034;SDS011;12242;50.952;4.678;2023-02-18T11:55:16;4.38;;;1.05;;
24034;SDS011;12242;50.952;4.678;2023-02-18T12:03:54;3.40;;;0.85;;
24034;SDS011;12242;50.952;4.678;2023-02-18T12:06:01;7.55;;;1.20;;
24034;SDS011;12242;50.952;4.678;2023-02-18T12:08:33;10.05;;;1.02;;
24034;SDS011;12242;50.952;4.678;2023-02-18T12:11:15;3.85;;;0.98;;
24034;SDS011;12242;50.952;4.678;2023-02-18T12:13:58;4.10;;;1.00;;
24034;SDS011;12242;50.952;4.678;2023-02-18T12:31:09;5.78;;;1.00;;
24034;SDS011;12242;50.952;4.678;2023-02-18T12:33:50;4.55;;;1.08;;
24034;SDS011;12242;50.952;4.678;2023-02-18T12:45:12;4.93;;;1.05;;
24034;SDS011;12242;50.952;4.678;2023-02-18T12:51:08;9.77;;;1.40;;
24034;SDS011;12242;50.952;4.678;2023-02-18T12:53:53;6.95;;;1.23;;
24034;SDS011;12242;50.952;4.678;2023-02-18T13:02:14;7.50;;;1.30;;
24034;SDS011;12242;50.952;4.678;2023-02-18T13:04:53;5.68;;;1.27;;
24034;SDS011;12242;50.952;4.678;2023-02-18T13:18:10;9.48;;;1.15;;
24034;SDS011;12242;50.952;4.678;2023-02-18T13:20:50;8.43;;;1.20;;
24034;SDS011;12242;50.952;4.678;2023-02-18T13:23:21;11.98;;;1.58;;
24034;SDS011;12242;50.952;4.678;2023-02-18T13:26:04;2.80;;;1.05;;
24034;SDS011;12242;50.952;4.678;2023-02-18T13:28:54;6.32;;;1.17;;
24034;SDS011;12242;50.952;4.678;2023-02-18T13:34:03;6.55;;;1.60;;
24034;SDS011;12242;50.952;4.678;2023-02-18T13:39:34;4.10;;;1.50;;
24034;SDS011;12242;50.952;4.678;2023-02-18T13:42:11;9.65;;;1.35;;
24034;SDS011;12242;50.952;4.678;2023-02-18T13:45:01;7.50;;;1.67;;
24034;SDS011;12242;50.952;4.678;2023-02-18T13:47:43;6.78;;;1.45;;
24034;SDS011;12242;50.952;4.678;2023-02-18T13:50:15;6.45;;;1.27;;
24034;SDS011;12242;50.952;4.678;2023-02-18T13:52:49;5.55;;;1.60;;
24034;SDS011;12242;50.952;4.678;2023-02-18T13:55:21;13.25;;;1.50;;
24034;SDS011;12242;50.952;4.678;2023-02-18T13:57:53;6.95;;;1.50;;
24034;SDS011;12242;50.952;4.678;2023-02-18T14:00:23;7.28;;;1.75;;
24034;SDS011;12242;50.952;4.678;2023-02-18T14:06:20;6.53;;;1.65;;
24034;SDS011;12242;50.952;4.678;2023-02-18T14:09:40;9.05;;;1.90;;
24034;SDS011;12242;50.952;4.678;2023-02-18T14:11:54;10.43;;;2.13;;
24034;SDS011;12242;50.952;4.678;2023-02-18T14:17:12;9.38;;;1.85;;
24034;SDS011;12242;50.952;4.678;2023-02-18T14:27:38;9.50;;;2.03;;
24034;SDS011;12242;50.952;4.678;2023-02-18T14:30:15;8.07;;;1.65;;
24034;SDS011;12242;50.952;4.678;2023-02-18T14:33:00;7.43;;;1.60;;
24034;SDS011;12242;50.952;4.678;2023-02-18T14:41:18;3.15;;;1.40;;
24034;SDS011;12242;50.952;4.678;2023-02-18T14:51:46;6.03;;;1.45;;
24034;SDS011;12242;50.952;4.678;2023-02-18T14:54:19;5.60;;;1.58;;
24034;SDS011;12242;50.952;4.678;2023-02-18T14:56:54;5.97;;;1.65;;
24034;SDS011;12242;50.952;4.678;2023-02-18T14:59:35;5.95;;;1.60;;
24034;SDS011;12242;50.952;4.678;2023-02-18T15:02:19;6.25;;;1.50;;
24034;SDS011;12242;50.952;4.678;2023-02-18T15:04:53;5.35;;;1.60;;
24034;SDS011;12242;50.952;4.678;2023-02-18T15:07:20;9.18;;;1.48;;
24034;SDS011;12242;50.952;4.678;2023-02-18T15:09:51;4.50;;;1.23;;
24034;SDS011;12242;50.952;4.678;2023-02-18T15:12:22;4.32;;;1.42;;
24034;SDS011;12242;50.952;4.678;2023-02-18T15:14:52;6.07;;;1.30;;
24034;SDS011;12242;50.952;4.678;2023-02-18T15:17:21;3.85;;;1.27;;
24034;SDS011;12242;50.952;4.678;2023-02-18T15:19:54;5.38;;;1.35;;
24034;SDS011;12242;50.952;4.678;2023-02-18T15:22:25;7.78;;;1.48;;
24034;SDS011;12242;50.952;4.678;2023-02-18T15:24:56;10.30;;;2.08;;
24034;SDS011;12242;50.952;4.678;2023-02-18T15:27:25;4.28;;;1.25;;
24034;SDS011;12242;50.952;4.678;2023-02-18T15:32:50;6.20;;;1.45;;
24034;SDS011;12242;50.952;4.678;2023-02-18T15:35:22;5.13;;;1.30;;
24034;SDS011;12242;50.952;4.678;2023-02-18T15:37:57;5.55;;;1.40;;
24034;SDS011;12242;50.952;4.678;2023-02-18T15:40:34;7.50;;;1.63;;
24034;SDS011;12242;50.952;4.678;2023-02-18T15:43:04;5.78;;;1.60;;
24034;SDS011;12242;50.952;4.678;2023-02-18T15:45:39;8.90;;;1.77;;
24034;SDS011;12242;50.952;4.678;2023-02-18T15:48:19;5.30;;;1.73;;
24034;SDS011;12242;50.952;4.678;2023-02-18T15:50:52;10.93;;;1.80;;
24034;SDS011;12242;50.952;4.678;2023-02-18T15:53:28;7.50;;;1.88;;
24034;SDS011;12242;50.952;4.678;2023-02-18T15:55:57;7.88;;;1.75;;
24034;SDS011;12242;50.952;4.678;2023-02-18T15:58:30;5.30;;;2.33;;
24034;SDS011;12242;50.952;4.678;2023-02-18T16:00:59;5.70;;;2.05;;
24034;SDS011;12242;50.952;4.678;2023-02-18T16:03:36;6.10;;;1.90;;
24034;SDS011;12242;50.952;4.678;2023-02-18T16:06:18;7.80;;;2.22;;
24034;SDS011;12242;50.952;4.678;2023-02-18T16:08:57;6.72;;;1.63;;
24034;SDS011;12242;50.952;4.678;2023-02-18T16:11:31;7.32;;;1.98;;
24034;SDS011;12242;50.952;4.678;2023-02-18T16:14:03;9.93;;;2.80;;
24034;SDS011;12242;50.952;4.678;2023-02-18T16:16:36;8.43;;;2.47;;
24034;SDS011;12242;50.952;4.678;2023-02-18T16:19:18;6.90;;;1.92;;
24034;SDS011;12242;50.952;4.678;2023-02-18T16:21:52;5.68;;;2.33;;
24034;SDS011;12242;50.952;4.678;2023-02-18T16:24:26;7.93;;;1.85;;
24034;SDS011;12242;50.952;4.678;2023-02-18T16:26:56;12.70;;;2.42;;
24034;SDS011;12242;50.952;4.678;2023-02-18T16:29:25;5.05;;;1.90;;
24034;SDS011;12242;50.952;4.678;2023-02-18T16:32:06;14.95;;;2.45;;
24034;SDS011;12242;50.952;4.678;2023-02-18T16:34:36;11.98;;;2.33;;
24034;SDS011;12242;50.952;4.678;2023-02-18T16:37:03;8.35;;;2.55;;
24034;SDS011;12242;50.952;4.678;2023-02-18T16:39:52;8.15;;;1.77;;
24034;SDS011;12242;50.952;4.678;2023-02-18T16:42:24;5.05;;;1.88;;
24034;SDS011;12242;50.952;4.678;2023-02-18T16:44:51;7.07;;;1.80;;
24034;SDS011;12242;50.952;4.678;2023-02-18T16:47:18;4.88;;;1.73;;
24034;SDS011;12242;50.952;4.678;2023-02-18T16:49:48;8.05;;;1.85;;
24034;SDS011;12242;50.952;4.678;2023-02-18T16:52:17;4.55;;;1.50;;
24034;SDS011;12242;50.952;4.678;2023-02-18T16:54:49;7.30;;;1.90;;
24034;SDS011;12242;50.952;4.678;2023-02-18T16:57:18;6.28;;;2.30;;
24034;SDS011;12242;50.952;4.678;2023-02-18T16:59:51;7.57;;;1.95;;
24034;SDS011;12242;50.952;4.678;2023-02-18T17:02:18;3.55;;;1.70;;
24034;SDS011;12242;50.952;4.678;2023-02-18T17:04:47;5.97;;;1.83;;
24034;SDS011;12242;50.952;4.678;2023-02-18T17:07:15;7.45;;;2.00;;
24034;SDS011;12242;50.952;4.678;2023-02-18T17:09:44;7.53;;;2.30;;
24034;SDS011;12242;50.952;4.678;2023-02-18T17:12:14;9.38;;;2.30;;
24034;SDS011;12242;50.952;4.678;2023-02-18T17:14:41;3.75;;;1.20;;
24034;SDS011;12242;50.952;4.678;2023-02-18T17:17:12;5.15;;;1.67;;
24034;SDS011;12242;50.952;4.678;2023-02-18T17:19:39;7.22;;;1.63;;
24034;SDS011;12242;50.952;4.678;2023-02-18T17:22:12;7.03;;;1.87;;
24034;SDS011;12242;50.952;4.678;2023-02-18T17:24:40;7.90;;;1.90;;
24034;SDS011;12242;50.952;4.678;2023-02-18T17:27:09;4.20;;;1.55;;
24034;SDS011;12242;50.952;4.678;2023-02-18T17:29:41;9.75;;;2.05;;
24034;SDS011;12242;50.952;4.678;2023-02-18T17:32:10;4.97;;;1.73;;
24034;SDS011;12242;50.952;4.678;2023-02-18T17:34:41;8.05;;;1.75;;
24034;SDS011;12242;50.952;4.678;2023-02-18T17:37:11;6.45;;;2.13;;
24034;SDS011;12242;50.952;4.678;2023-02-18T17:39:39;7.43;;;1.88;;
24034;SDS011;12242;50.952;4.678;2023-02-18T17:42:09;5.38;;;1.85;;
24034;SDS011;12242;50.952;4.678;2023-02-18T17:44:37;6.03;;;2.15;;
24034;SDS011;12242;50.952;4.678;2023-02-18T17:47:05;7.35;;;2.00;;
24034;SDS011;12242;50.952;4.678;2023-02-18T17:49:33;4.40;;;1.95;;
24034;SDS011;12242;50.952;4.678;2023-02-18T17:52:00;10.80;;;2.40;;
24034;SDS011;12242;50.952;4.678;2023-02-18T17:54:32;8.75;;;2.47;;
24034;SDS011;12242;50.952;4.678;2023-02-18T17:57:02;6.15;;;2.00;;
24034;SDS011;12242;50.952;4.678;2023-02-18T17:59:29;6.03;;;1.85;;
24034;SDS011;12242;50.952;4.678;2023-02-18T18:01:58;8.43;;;2.33;;
24034;SDS011;12242;50.952;4.678;2023-02-18T18:04:28;11.65;;;2.20;;
24034;SDS011;12242;50.952;4.678;2023-02-18T18:06:57;6.43;;;2.38;;
24034;SDS011;12242;50.952;4.678;2023-02-18T18:09:25;6.65;;;2.25;;